Aviation Digital Data Service (ADDS)

Output produced by METARs form (2119 UTC 23 April 2018)
found at http://aviationweather.gov/adds/metars/
 
METAR text: KWJF 232056Z 25016G20KT 10SM CLR 31/02 A2997 RMK AO2 SLP131 T03060022 58016
Conditions at: KWJF (LANCASTER/FOX , CA, US) observed 2056 UTC 23 April 2018
Temperature: 30.6°C (87°F)
Dewpoint: 2.2°C (36°F) [RH = 16%]
Pressure (altimeter): 29.97 inches Hg (1015.0 mb)
[Sea-level pressure: 1013.1 mb]
Winds: from the WSW (250 degrees) at 18 MPH (16 knots; 8.3 m/s)
gusting to 23 MPH (20 knots; 10.4 m/s)
Visibility: 10 or more miles (16+ km)
Ceiling: at least 12,000 feet AGL
Clouds: sky clear below 12,000 feet AGL
Weather: no significant weather observed at this time

Forecast for: KWJF (LANCASTER/FOX , CA, US)
Text: KWJF 231729Z 2318/2418 24008KT P6SM SKC
Forecast period: 1800 to 1900 UTC 23 April 2018
Forecast type: FROM: standard forecast or significant change
Winds: from the WSW (240 degrees) at 9 MPH (8 knots; 4.2 m/s)
Visibility: 6 or more miles (10+ km)
Clouds: clear skies
Weather: no significant weather forecast for this period
Forecast for: KWJF (LANCASTER/FOX , CA, US)
Text: KWJF 231729Z 2318/2418 24008KT P6SM SKC
Forecast period: 1800 to 1900 UTC 23 April 2018
Forecast type: FROM: standard forecast or significant change
Winds: from the WSW (240 degrees) at 9 MPH (8 knots; 4.2 m/s)
Visibility: 6 or more miles (10+ km)
Clouds: clear skies
Weather: no significant weather forecast for this period
Forecast for: KWJF (LANCASTER/FOX , CA, US)
Text: KWJF 231729Z 2318/2418 24008KT P6SM SKC
Forecast period: 1900 UTC 23 April 2018 to 0200 UTC 24 April 2018
Forecast type: FROM: standard forecast or significant change
Winds: from the SW (230 degrees) at 21 MPH (18 knots; 9.4 m/s)
gusting to 32 MPH (28 knots; 14.6 m/s)
Visibility: 6 or more miles (10+ km)
Clouds: clear skies
Weather: no significant weather forecast for this period
Forecast for: KWJF (LANCASTER/FOX , CA, US)
Text: KWJF 231729Z 2318/2418 24008KT P6SM SKC
Forecast period: 1900 UTC 23 April 2018 to 0200 UTC 24 April 2018
Forecast type: FROM: standard forecast or significant change
Winds: from the SW (230 degrees) at 21 MPH (18 knots; 9.4 m/s)
gusting to 32 MPH (28 knots; 14.6 m/s)
Visibility: 6 or more miles (10+ km)
Clouds: clear skies
Weather: no significant weather forecast for this period
Forecast for: KWJF (LANCASTER/FOX , CA, US)
Text: KWJF 231729Z 2318/2418 24008KT P6SM SKC
Forecast period: 0200 to 1800 UTC 24 April 2018
Forecast type: FROM: standard forecast or significant change
Winds: from the WSW (240 degrees) at 14 MPH (12 knots; 6.2 m/s)
Visibility: 6 or more miles (10+ km)
Clouds: clear skies
Weather: no significant weather forecast for this period
Forecast for: KWJF (LANCASTER/FOX , CA, US)
Text: KWJF 231729Z 2318/2418 24008KT P6SM SKC
Forecast period: 0200 to 1800 UTC 24 April 2018
Forecast type: FROM: standard forecast or significant change
Winds: from the WSW (240 degrees) at 14 MPH (12 knots; 6.2 m/s)
Visibility: 6 or more miles (10+ km)
Clouds: clear skies
Weather: no significant weather forecast for this period